Time;durP1;ratioP1;P1;durP2;ratioP2;P2;SDS_P1;SDS_P2;PMS_P1;PMS_P2;Temp;Humidity;BMP_temperature;BMP_pressure;BME280_temperature;BME280_humidity;BME280_pressure;Samples;Min_cycle;Max_cycle;Signal;HPM_P1;HPM_P2
2023/08/03 00:01:50;;;;;;;;;;;;;;;22.92;29.29;97373.69;4899331;29;976;-75
2023/08/03 00:04:16;;;;;;;;;;;;;;;22.97;29.38;97371.03;4899266;29;981;-76
2023/08/03 00:06:42;;;;;;;;;;;;;;;23.16;29.03;97366.19;4927362;29;1984;-76
2023/08/03 00:09:07;;;;;;;;;;;;;;;23.27;28.74;97363.66;4905676;29;1115;-76
2023/08/03 00:11:33;;;;;;;;;;;;;;;23.35;28.67;97367.75;4937116;29;1003;-76
2023/08/03 00:13:58;;;;;;;;;;;;;;;23.25;28.74;97369.00;4904877;29;1752;-75
2023/08/03 00:16:24;;;;;;;;;;;;;;;23.17;28.75;97366.97;4920117;29;1988;-76
2023/08/03 00:18:49;;;;;;;;;;;;;;;23.09;29.13;97372.94;4920749;29;1567;-76
2023/08/03 00:21:15;;;;;;;;;;;;;;;23.02;29.19;97378.13;4918097;29;993;-76
2023/08/03 00:23:40;;;;;;;;;;;;;;;23.64;28.13;97373.00;4917833;29;1915;-76
2023/08/03 00:26:06;;;;;;;;;;;;;;;23.30;28.35;97374.06;4902304;29;1905;-75
2023/08/03 00:28:31;;;;;;;;;;;;;;;23.20;28.69;97378.16;4917723;29;1346;-76
2023/08/03 00:30:57;;;;;;;;;;;;;;;23.22;28.73;97387.00;4901848;29;1669;-76
2023/08/03 00:33:23;;;;;;;;;;;;;;;23.05;28.81;97383.66;4917861;29;949;-75
2023/08/03 00:35:48;;;;;;;;;;;;;;;23.23;28.59;97380.06;4918146;29;1158;-76
2023/08/03 00:38:14;;;;;;;;;;;;;;;23.04;29.08;97382.06;4919334;29;1058;-76
2023/08/03 00:40:40;;;;;;;;;;;;;;;23.09;28.82;97377.81;4936143;29;952;-75
2023/08/03 00:43:05;;;;;;;;;;;;;;;22.86;29.13;97377.13;4921091;29;1319;-76
2023/08/03 00:45:31;;;;;;;;;;;;;;;22.88;29.11;97374.63;4920035;29;1983;-76
2023/08/03 00:47:57;;;;;;;;;;;;;;;23.01;29.02;97370.88;4916941;29;1975;-76
2023/08/03 00:50:23;;;;;;;;;;;;;;;23.12;28.76;97371.22;4902123;29;1187;-76
2023/08/03 00:52:49;;;;;;;;;;;;;;;23.08;28.87;97376.25;4884705;29;1138;-75
2023/08/03 00:55:15;;;;;;;;;;;;;;;23.15;28.84;97381.63;4920700;29;1225;-76
2023/08/03 00:57:41;;;;;;;;;;;;;;;23.48;28.52;97381.81;4935782;29;1906;-75
2023/08/03 01:00:07;;;;;;;;;;;;;;;23.01;29.45;97366.00;4935871;29;1704;-75
2023/08/03 01:02:32;;;;;;;;;;;;;;;23.07;29.16;97369.78;4920718;29;1052;-76
2023/08/03 01:05:01;;;;;;;;;;;;;;;23.20;29.25;97372.47;4905310;29;1915;-76
2023/08/03 01:07:26;;;;;;;;;;;;;;;23.21;29.39;97362.72;4920812;29;1036;-76
2023/08/03 01:09:52;;;;;;;;;;;;;;;23.18;29.29;97357.97;4904980;29;1348;-76
2023/08/03 01:12:17;;;;;;;;;;;;;;;23.34;29.26;97348.38;4936545;29;1004;-76
2023/08/03 01:14:43;;;;;;;;;;;;;;;23.18;29.53;97355.13;4925926;29;1687;-76
2023/08/03 01:17:09;;;;;;;;;;;;;;;23.14;29.25;97349.59;4920561;29;1596;-75
2023/08/03 01:19:35;;;;;;;;;;;;;;;23.31;29.42;97344.44;4920559;29;1113;-76
2023/08/03 01:22:00;;;;;;;;;;;;;;;23.29;29.55;97346.94;4917240;29;1806;-76
2023/08/03 01:24:26;;;;;;;;;;;;;;;23.36;29.32;97343.00;4901935;29;1079;-76
2023/08/03 01:26:53;;;;;;;;;;;;;;;23.49;29.10;97354.22;4904326;29;1899;-76
2023/08/03 01:29:18;;;;;;;;;;;;;;;23.05;29.74;97343.13;4961067;28;1879;-76
2023/08/03 01:31:44;;;;;;;;;;;;;;;23.19;29.29;97353.88;4958073;28;864;-76
2023/08/03 01:34:13;;;;;;;;;;;;;;;23.08;29.83;97347.88;4956516;29;947;-76
2023/08/03 01:36:38;;;;;;;;;;;;;;;23.35;29.61;97349.94;4956841;29;865;-76
2023/08/03 01:39:05;;;;;;;;;;;;;;;23.18;29.61;97348.69;4940717;29;1259;-76
2023/08/03 01:41:31;;;;;;;;;;;;;;;23.04;29.99;97358.56;4957210;28;1100;-75
2023/08/03 01:44:15;;;;;;;;;;;;;;;23.34;29.54;97356.88;4939668;29;1805;-76
2023/08/03 01:46:40;;;;;;;;;;;;;;;23.04;29.87;97347.22;4956660;29;1947;-75
2023/08/03 01:49:07;;;;;;;;;;;;;;;23.00;29.96;97352.25;4956085;29;1088;-75
2023/08/03 01:51:32;;;;;;;;;;;;;;;23.15;29.92;97356.06;4926440;29;1493;-76
2023/08/03 01:53:58;;;;;;;;;;;;;;;23.42;29.44;97361.00;4960232;29;1078;-75
2023/08/03 01:56:24;;;;;;;;;;;;;;;23.21;29.46;97362.72;4944135;29;1153;-76
2023/08/03 01:58:50;;;;;;;;;;;;;;;23.22;29.60;97369.19;4975497;28;2100;-76
2023/08/03 02:01:16;;;;;;;;;;;;;;;23.31;29.20;97367.16;4959980;29;1201;-76
2023/08/03 02:03:41;;;;;;;;;;;;;;;23.15;29.76;97373.09;4907724;29;1154;-76
2023/08/03 02:06:07;;;;;;;;;;;;;;;23.38;29.18;97374.56;4882944;29;1942;-76
2023/08/03 02:08:32;;;;;;;;;;;;;;;23.43;29.18;97378.81;4867168;29;1224;-76
2023/08/03 02:10:58;;;;;;;;;;;;;;;23.46;29.48;97372.19;4883194;29;904;-76
2023/08/03 02:13:24;;;;;;;;;;;;;;;23.14;29.63;97374.38;4866469;29;1679;-75
2023/08/03 02:15:49;;;;;;;;;;;;;;;23.42;29.52;97377.25;4882938;29;1111;-76
2023/08/03 02:18:15;;;;;;;;;;;;;;;23.33;29.59;97378.81;4866903;29;1673;-77
2023/08/03 02:20:41;;;;;;;;;;;;;;;23.05;30.01;97386.50;4882872;29;1068;-76
2023/08/03 02:23:06;;;;;;;;;;;;;;;23.56;29.07;97388.75;4866663;29;1043;-76
2023/08/03 02:25:33;;;;;;;;;;;;;;;23.35;29.39;97384.78;4882538;29;1903;-75
2023/08/03 02:27:59;;;;;;;;;;;;;;;23.00;29.95;97400.50;4863223;29;1908;-76
2023/08/03 02:30:25;;;;;;;;;;;;;;;23.33;29.42;97392.22;4833296;29;1148;-76
2023/08/03 02:32:50;;;;;;;;;;;;;;;23.21;29.19;97395.97;4833148;29;1342;-76
2023/08/03 02:35:17;;;;;;;;;;;;;;;23.29;29.13;97389.53;4862464;29;1172;-75
2023/08/03 02:37:44;;;;;;;;;;;;;;;23.47;28.60;97390.81;4910786;29;1290;-76
2023/08/03 02:40:15;;;;;;;;;;;;;;;23.05;29.25;97391.38;4918892;29;1279;-76
2023/08/03 02:42:42;;;;;;;;;;;;;;;22.81;29.61;97386.25;4903467;29;1689;-76
2023/08/03 02:45:08;;;;;;;;;;;;;;;23.21;29.02;97396.78;4928141;29;1974;-76
2023/08/03 02:47:35;;;;;;;;;;;;;;;23.31;28.67;97395.53;4938979;29;1183;-76
2023/08/03 02:50:01;;;;;;;;;;;;;;;23.17;28.74;97389.69;4919612;29;1802;-75
2023/08/03 02:52:26;;;;;;;;;;;;;;;23.35;28.46;97393.31;4882617;29;1821;-78
2023/08/03 02:54:52;;;;;;;;;;;;;;;23.54;28.35;97402.63;4900271;29;1630;-76
2023/08/03 02:57:20;;;;;;;;;;;;;;;23.08;28.93;97404.63;4885641;29;1238;-76
2023/08/03 02:59:48;;;;;;;;;;;;;;;23.26;28.86;97410.34;4885240;29;1313;-76
2023/08/03 03:02:18;;;;;;;;;;;;;;;23.21;28.88;97401.63;4884076;29;1381;-76
2023/08/03 03:04:44;;;;;;;;;;;;;;;23.01;28.88;97404.94;4896327;29;1318;-76
2023/08/03 03:07:10;;;;;;;;;;;;;;;23.02;28.92;97406.50;4940381;29;2036;-76
2023/08/03 03:09:37;;;;;;;;;;;;;;;23.05;28.80;97411.22;4925776;29;1152;-76
2023/08/03 03:12:05;;;;;;;;;;;;;;;22.84;29.34;97416.50;4925899;29;1379;-75
2023/08/03 03:14:41;;;;;;;;;;;;;;;23.29;28.77;97408.59;4926998;29;1066;-76
2023/08/03 03:17:06;;;;;;;;;;;;;;;23.10;29.18;97407.78;4925769;29;1092;-76
2023/08/03 03:19:34;;;;;;;;;;;;;;;23.48;28.52;97415.09;4925669;29;1118;-76
2023/08/03 03:22:03;;;;;;;;;;;;;;;22.84;29.25;97412.88;4940779;29;1965;-76
2023/08/03 03:24:29;;;;;;;;;;;;;;;23.06;29.21;97413.63;4925487;29;1310;-76
2023/08/03 03:26:54;;;;;;;;;;;;;;;23.21;29.09;97413.81;4940993;29;1914;-76
2023/08/03 03:29:20;;;;;;;;;;;;;;;23.22;28.77;97421.06;4924959;29;1535;-76
2023/08/03 03:31:48;;;;;;;;;;;;;;;23.07;29.06;97417.25;4910414;29;1127;-76
2023/08/03 03:34:14;;;;;;;;;;;;;;;23.15;29.03;97424.19;4925118;29;1327;-76
2023/08/03 03:36:40;;;;;;;;;;;;;;;23.03;28.94;97425.09;4894239;29;1232;-76
2023/08/03 03:39:05;;;;;;;;;;;;;;;23.01;29.23;97419.13;4850711;29;1254;-76
2023/08/03 03:41:31;;;;;;;;;;;;;;;23.23;28.86;97422.63;4866012;29;1067;-76
2023/08/03 03:43:57;;;;;;;;;;;;;;;23.16;29.09;97427.81;4865689;29;1067;-76
2023/08/03 03:46:23;;;;;;;;;;;;;;;23.24;28.72;97424.22;4865327;29;1899;-76
2023/08/03 03:48:48;;;;;;;;;;;;;;;23.21;28.76;97424.34;4865542;29;1055;-76
2023/08/03 03:51:17;;;;;;;;;;;;;;;23.15;29.08;97421.34;4869384;29;1631;-76
2023/08/03 03:53:43;;;;;;;;;;;;;;;23.11;29.05;97421.50;4883563;29;2218;-76
2023/08/03 03:56:12;;;;;;;;;;;;;;;23.22;29.02;97421.06;4898999;29;1900;-76
2023/08/03 03:58:38;;;;;;;;;;;;;;;23.31;28.74;97423.91;4868219;29;1418;-76
2023/08/03 04:01:03;;;;;;;;;;;;;;;23.25;28.96;97439.19;4918571;29;1016;-76
2023/08/03 04:03:29;;;;;;;;;;;;;;;23.26;28.59;97432.25;4886824;29;1047;-76
2023/08/03 04:06:00;;;;;;;;;;;;;;;23.21;28.79;97430.84;4884480;29;1912;-76
2023/08/03 04:08:25;;;;;;;;;;;;;;;23.12;28.95;97434.44;4914668;29;1060;-76
2023/08/03 04:10:51;;;;;;;;;;;;;;;23.12;29.01;97440.09;4956881;29;984;-76
2023/08/03 04:13:16;;;;;;;;;;;;;;;23.36;28.74;97443.16;4940749;29;1101;-76
2023/08/03 04:15:42;;;;;;;;;;;;;;;23.10;29.00;97436.16;4940412;29;1299;-76
2023/08/03 04:18:08;;;;;;;;;;;;;;;23.46;28.47;97446.78;4956058;29;979;-76
2023/08/03 04:20:33;;;;;;;;;;;;;;;23.27;28.58;97440.31;4940353;29;1238;-76
2023/08/03 04:23:00;;;;;;;;;;;;;;;23.37;28.74;97438.28;4940222;29;1227;-76
2023/08/03 04:25:26;;;;;;;;;;;;;;;23.57;28.38;97444.31;4940012;29;1907;-76
2023/08/03 04:27:57;;;;;;;;;;;;;;;23.46;28.52;97448.84;4925487;29;1345;-76
2023/08/03 04:30:27;;;;;;;;;;;;;;;23.10;29.21;97450.34;4940162;29;1054;-76
2023/08/03 04:32:54;;;;;;;;;;;;;;;23.29;28.90;97448.34;4955942;29;990;-76
2023/08/03 04:35:20;;;;;;;;;;;;;;;23.14;28.95;97456.66;4940141;29;1042;-76
2023/08/03 04:37:51;;;;;;;;;;;;;;;23.31;29.01;97460.00;4954219;29;1144;-76
2023/08/03 04:40:16;;;;;;;;;;;;;;;23.21;28.91;97464.09;4925236;29;1330;-76
2023/08/03 04:42:42;;;;;;;;;;;;;;;23.20;28.87;97474.66;4941446;29;1219;-77
2023/08/03 04:45:08;;;;;;;;;;;;;;;23.22;29.01;97472.16;4957065;29;1981;-76
2023/08/03 04:47:35;;;;;;;;;;;;;;;23.26;28.98;97477.66;4957078;29;1281;-76
2023/08/03 04:50:01;;;;;;;;;;;;;;;23.21;29.16;97473.41;4957519;29;1616;-76
2023/08/03 04:52:27;;;;;;;;;;;;;;;23.25;28.97;97476.88;4957276;28;1224;-77
2023/08/03 04:54:53;;;;;;;;;;;;;;;23.44;28.46;97482.59;4957048;29;1347;-75
2023/08/03 04:57:18;;;;;;;;;;;;;;;23.16;29.19;97474.03;4957591;29;962;-76
2023/08/03 04:59:44;;;;;;;;;;;;;;;23.12;29.21;97473.38;4920630;29;1387;-76
2023/08/03 05:02:09;;;;;;;;;;;;;;;23.34;28.84;97485.41;4936583;29;947;-76
2023/08/03 05:04:36;;;;;;;;;;;;;;;23.27;29.09;97484.94;4920681;29;1138;-75
2023/08/03 05:07:02;;;;;;;;;;;;;;;23.27;28.78;97484.94;4905015;29;1914;-76
2023/08/03 05:09:28;;;;;;;;;;;;;;;23.30;29.04;97483.97;4901351;29;1186;-76
2023/08/03 05:11:54;;;;;;;;;;;;;;;23.27;29.07;97484.94;4901946;29;997;-77
2023/08/03 05:14:19;;;;;;;;;;;;;;;23.34;28.98;97485.41;4901487;29;1133;-76
2023/08/03 05:16:45;;;;;;;;;;;;;;;23.48;28.71;97488.94;4902133;29;911;-76
2023/08/03 05:19:10;;;;;;;;;;;;;;;23.64;28.43;97494.34;4901527;29;1012;-76
2023/08/03 05:21:36;;;;;;;;;;;;;;;23.24;29.30;97503.69;4901544;29;1120;-76
2023/08/03 05:24:01;;;;;;;;;;;;;;;23.23;29.11;97502.09;4899620;29;1474;-76
2023/08/03 05:26:27;;;;;;;;;;;;;;;23.63;28.50;97495.63;4911867;29;1904;-75
2023/08/03 05:28:53;;;;;;;;;;;;;;;23.31;28.96;97502.59;4909591;29;1114;-76
2023/08/03 05:31:19;;;;;;;;;;;;;;;23.45;29.16;97506.91;4927754;29;1225;-76
2023/08/03 05:33:44;;;;;;;;;;;;;;;23.48;28.93;97511.66;4939252;29;1207;-75
2023/08/03 05:36:10;;;;;;;;;;;;;;;23.24;29.50;97509.34;4910237;29;1239;-77
2023/08/03 05:38:35;;;;;;;;;;;;;;;23.23;29.28;97507.78;4917810;29;1137;-76
2023/08/03 05:41:01;;;;;;;;;;;;;;;23.45;29.12;97515.41;4920991;29;981;-76
2023/08/03 05:43:27;;;;;;;;;;;;;;;23.48;29.16;97511.66;4920873;29;918;-76
2023/08/03 05:46:02;;;;;;;;;;;;;;;23.31;29.34;97509.09;4920816;29;1911;-75
2023/08/03 05:48:28;;;;;;;;;;;;;;;23.36;29.34;97507.66;4904721;29;984;-76
2023/08/03 05:50:55;;;;;;;;;;;;;;;23.29;29.51;97510.78;4905290;29;1032;-75
2023/08/03 05:53:21;;;;;;;;;;;;;;;23.50;29.13;97511.94;4904927;29;1145;-75
2023/08/03 05:55:46;;;;;;;;;;;;;;;23.19;29.33;97506.34;4901671;29;980;-76
2023/08/03 05:58:15;;;;;;;;;;;;;;;23.14;29.56;97513.41;4901614;29;974;-76
2023/08/03 06:00:41;;;;;;;;;;;;;;;23.52;29.15;97512.25;4901759;29;970;-76
2023/08/03 06:03:10;;;;;;;;;;;;;;;23.26;29.63;97500.38;4901561;29;1009;-76
2023/08/03 06:05:40;;;;;;;;;;;;;;;23.43;29.56;97512.25;4901527;29;1964;-76
2023/08/03 06:08:35;;;;;;;;;;;;;;;23.44;29.32;97511.78;4906979;29;1022;-75
2023/08/03 06:11:01;;;;;;;;;;;;;;;23.54;29.06;97516.22;4882662;29;1032;-76
2023/08/03 06:13:28;;;;;;;;;;;;;;;23.40;29.26;97520.44;4882855;29;958;-75
2023/08/03 06:15:53;;;;;;;;;;;;;;;23.34;29.44;97521.53;4864032;29;937;-76
2023/08/03 06:18:19;;;;;;;;;;;;;;;23.67;29.06;97518.16;4864041;29;1218;-75
2023/08/03 06:20:46;;;;;;;;;;;;;;;23.09;29.98;97525.38;4848526;29;1138;-76
2023/08/03 06:23:13;;;;;;;;;;;;;;;23.32;29.60;97524.84;4863543;29;1095;-76
2023/08/03 06:25:38;;;;;;;;;;;;;;;23.54;29.42;97526.81;4848374;29;1912;-76
2023/08/03 06:28:04;;;;;;;;;;;;;;;23.60;29.30;97524.91;4863742;29;1303;-75
2023/08/03 06:30:30;;;;;;;;;;;;;;;23.18;30.12;97522.59;4832900;29;911;-76
2023/08/03 06:32:55;;;;;;;;;;;;;;;23.32;29.60;97527.69;4834110;29;983;-75
2023/08/03 06:35:40;;;;;;;;;;;;;;;23.33;29.83;97520.75;4829795;29;1135;-75
2023/08/03 06:38:05;;;;;;;;;;;;;;;23.14;30.13;97527.59;4813514;29;1314;-75
2023/08/03 06:40:32;;;;;;;;;;;;;;;23.43;29.61;97534.97;4811562;29;980;-75
2023/08/03 06:42:57;;;;;;;;;;;;;;;23.34;29.81;97525.16;4826791;29;934;-76
2023/08/03 06:45:23;;;;;;;;;;;;;;;23.43;29.66;97523.63;4826528;29;1998;-76
2023/08/03 06:47:48;;;;;;;;;;;;;;;23.32;29.97;97526.91;4818709;29;1010;-76
2023/08/03 06:50:14;;;;;;;;;;;;;;;23.55;29.65;97534.06;4841981;29;1047;-76
2023/08/03 06:52:39;;;;;;;;;;;;;;;23.58;29.52;97527.44;4842077;29;930;-76
2023/08/03 06:55:05;;;;;;;;;;;;;;;23.23;30.00;97524.81;4841730;29;1143;-76
2023/08/03 06:57:31;;;;;;;;;;;;;;;23.59;29.28;97529.03;4841756;29;1016;-76
2023/08/03 06:59:56;;;;;;;;;;;;;;;23.52;29.81;97537.81;4826336;29;1010;-75
2023/08/03 07:02:22;;;;;;;;;;;;;;;23.22;30.17;97528.91;4826325;29;987;-75
2023/08/03 07:04:48;;;;;;;;;;;;;;;23.63;29.65;97535.38;4841669;29;1002;-75
2023/08/03 07:07:16;;;;;;;;;;;;;;;23.72;29.15;97534.59;4826353;29;1982;-77
2023/08/03 07:09:48;;;;;;;;;;;;;;;23.63;29.62;97532.53;4834547;29;1107;-76
2023/08/03 07:12:14;;;;;;;;;;;;;;;23.62;29.80;97539.41;4892501;29;955;-75
2023/08/03 07:14:39;;;;;;;;;;;;;;;23.37;29.81;97532.75;4900047;29;1157;-76
2023/08/03 07:17:05;;;;;;;;;;;;;;;23.40;30.07;97540.31;4900534;29;990;-76
2023/08/03 07:19:31;;;;;;;;;;;;;;;23.57;29.78;97548.56;4915344;29;1024;-76
2023/08/03 07:21:56;;;;;;;;;;;;;;;23.59;29.87;97537.53;4919341;29;974;-76
2023/08/03 07:24:22;;;;;;;;;;;;;;;23.75;29.37;97542.97;4919313;29;968;-78
2023/08/03 07:26:48;;;;;;;;;;;;;;;23.35;30.09;97543.78;4918872;29;1906;-76
2023/08/03 07:29:14;;;;;;;;;;;;;;;23.59;29.44;97544.00;4919198;29;1271;-76
2023/08/03 07:31:39;;;;;;;;;;;;;;;23.41;30.18;97541.09;4918919;29;1243;-77
2023/08/03 07:34:05;;;;;;;;;;;;;;;23.53;30.01;97547.94;4919012;29;1245;-76
2023/08/03 07:36:31;;;;;;;;;;;;;;;23.54;29.72;97544.63;4899698;29;1321;-76
2023/08/03 07:38:56;;;;;;;;;;;;;;;23.72;29.52;97538.22;4900064;29;966;-76
2023/08/03 07:41:22;;;;;;;;;;;;;;;23.30;30.42;97547.22;4899932;29;1106;-75
2023/08/03 07:43:49;;;;;;;;;;;;;;;23.60;29.98;97542.75;4899761;29;1032;-76
2023/08/03 07:46:15;;;;;;;;;;;;;;;23.30;30.35;97541.53;4912578;29;1906;-77
2023/08/03 07:48:40;;;;;;;;;;;;;;;23.63;29.86;97543.91;4921471;29;995;-75
2023/08/03 07:51:16;;;;;;;;;;;;;;;23.42;30.04;97541.91;4937534;29;1028;-75
2023/08/03 07:53:41;;;;;;;;;;;;;;;23.79;29.46;97543.59;4937322;29;1229;-76
2023/08/03 07:56:20;;;;;;;;;;;;;;;23.77;29.45;97551.78;4937889;29;985;-76
2023/08/03 07:58:46;;;;;;;;;;;;;;;23.61;29.93;97549.22;4921549;29;1055;-75
2023/08/03 08:01:12;;;;;;;;;;;;;;;23.36;30.21;97536.84;4905812;29;1112;-75
2023/08/03 08:03:37;;;;;;;;;;;;;;;23.49;29.94;97542.41;4921643;29;962;-75
2023/08/03 08:06:06;;;;;;;;;;;;;;;23.31;30.41;97548.81;4937655;29;1899;-76
2023/08/03 08:08:32;;;;;;;;;;;;;;;23.38;30.13;97542.06;4937147;29;977;-75
2023/08/03 08:10:58;;;;;;;;;;;;;;;23.56;30.20;97552.66;4954432;29;963;-76
2023/08/03 08:13:23;;;;;;;;;;;;;;;23.90;29.79;97541.09;4954445;29;912;-77
2023/08/03 08:15:48;;;;;;;;;;;;;;;23.91;30.00;97541.88;4954447;29;998;-77
2023/08/03 08:18:14;;;;;;;;;;;;;;;23.97;30.12;97542.03;4940198;29;901;-76
2023/08/03 08:20:40;;;;;;;;;;;;;;;23.71;30.73;97541.53;4954572;29;923;-76
2023/08/03 08:23:05;;;;;;;;;;;;;;;24.08;30.13;97536.66;4938192;29;1574;-76
2023/08/03 08:25:32;;;;;;;;;;;;;;;24.16;30.17;97538.75;4938301;29;1976;-76
2023/08/03 08:27:59;;;;;;;;;;;;;;;23.43;31.68;97532.13;4954980;29;1133;-76
2023/08/03 08:30:24;;;;;;;;;;;;;;;23.75;31.13;97540.13;4954398;29;930;-76
2023/08/03 08:32:50;;;;;;;;;;;;;;;23.91;30.78;97534.13;4953989;29;1114;-76
2023/08/03 08:35:16;;;;;;;;;;;;;;;23.88;30.82;97540.78;4953838;29;1498;-77
2023/08/03 08:37:41;;;;;;;;;;;;;;;23.59;31.23;97546.06;4953634;29;1176;-76
2023/08/03 08:40:13;;;;;;;;;;;;;;;23.62;30.64;97545.09;4937322;29;883;-77
2023/08/03 08:42:38;;;;;;;;;;;;;;;23.45;31.18;97540.97;4953529;29;1257;-76
2023/08/03 08:45:07;;;;;;;;;;;;;;;23.63;30.78;97546.72;4938721;29;1184;-77
2023/08/03 08:47:32;;;;;;;;;;;;;;;23.53;30.99;97537.38;4936351;29;1910;-77
2023/08/03 08:49:58;;;;;;;;;;;;;;;23.70;30.63;97545.63;4957332;29;1096;-77
2023/08/03 08:52:26;;;;;;;;;;;;;;;23.66;30.36;97545.78;4956367;29;1312;-77
2023/08/03 08:55:09;;;;;;;;;;;;;;;23.33;31.07;97537.78;4940738;29;969;-76
2023/08/03 08:57:35;;;;;;;;;;;;;;;23.49;30.69;97535.94;4956681;29;950;-76
2023/08/03 09:00:02;;;;;;;;;;;;;;;23.48;30.88;97537.19;4956366;29;939;-76
2023/08/03 09:02:27;;;;;;;;;;;;;;;23.59;30.39;97551.75;4956896;29;1245;-77
2023/08/03 09:04:53;;;;;;;;;;;;;;;23.79;29.93;97542.81;4956818;29;1185;-77
2023/08/03 09:07:18;;;;;;;;;;;;;;;23.42;30.65;97541.91;4957632;29;1987;-77
2023/08/03 09:09:44;;;;;;;;;;;;;;;23.72;30.25;97548.78;4956964;29;946;-76
2023/08/03 09:12:11;;;;;;;;;;;;;;;23.77;29.80;97546.09;4956389;29;937;-76
2023/08/03 09:14:50;;;;;;;;;;;;;;;23.62;30.35;97547.94;4957631;29;889;-76
2023/08/03 09:17:16;;;;;;;;;;;;;;;23.38;30.45;97537.16;4957713;29;940;-76
2023/08/03 09:19:42;;;;;;;;;;;;;;;23.86;29.94;97548.97;4956759;29;943;-77
2023/08/03 09:22:07;;;;;;;;;;;;;;;23.70;29.92;97546.44;4956790;29;908;-76
2023/08/03 09:24:33;;;;;;;;;;;;;;;23.68;29.97;97553.84;4956262;29;932;-77
2023/08/03 09:26:58;;;;;;;;;;;;;;;23.70;30.20;97552.09;4956387;29;1911;-76
2023/08/03 09:29:27;;;;;;;;;;;;;;;23.52;30.41;97543.50;4956478;29;1232;-77
2023/08/03 09:31:59;;;;;;;;;;;;;;;23.72;29.81;97532.53;4956669;29;982;-77
2023/08/03 09:34:33;;;;;;;;;;;;;;;23.72;29.76;97538.22;4917216;29;1068;-76
2023/08/03 09:36:59;;;;;;;;;;;;;;;23.72;30.02;97538.22;4886232;29;835;-76
2023/08/03 09:39:29;;;;;;;;;;;;;;;23.77;29.78;97540.44;4901660;29;984;-77
2023/08/03 09:41:54;;;;;;;;;;;;;;;23.55;30.20;97531.22;4902143;29;1098;-76
2023/08/03 09:44:20;;;;;;;;;;;;;;;23.62;30.09;97528.88;4901603;29;973;-76
2023/08/03 09:46:46;;;;;;;;;;;;;;;23.78;30.03;97535.56;4898171;29;1902;-77
2023/08/03 09:49:11;;;;;;;;;;;;;;;23.70;29.85;97535.06;4882701;29;955;-76
2023/08/03 09:51:38;;;;;;;;;;;;;;;23.73;29.91;97539.81;4863977;29;1276;-77
2023/08/03 09:54:13;;;;;;;;;;;;;;;23.77;29.87;97533.97;4864605;29;959;-76
2023/08/03 09:56:39;;;;;;;;;;;;;;;23.57;30.39;97526.66;4864071;29;1142;-74
2023/08/03 09:59:06;;;;;;;;;;;;;;;23.75;31.33;97536.50;4863258;29;1150;-69
2023/08/03 10:01:32;;;;;;;;;;;;;;;23.98;31.87;97535.88;4878878;29;1004;-74
2023/08/03 10:04:00;;;;;;;;;;;;;;;23.98;31.70;97529.41;4878727;29;977;-75
2023/08/03 10:06:32;;;;;;;;;;;;;;;24.04;31.37;97541.75;4914960;29;1980;-75
2023/08/03 10:09:02;;;;;;;;;;;;;;;24.18;30.77;97541.09;4919767;29;945;-74
2023/08/03 10:11:38;;;;;;;;;;;;;;;23.97;31.13;97525.00;4935450;29;1016;-74
2023/08/03 10:14:04;;;;;;;;;;;;;;;23.75;32.04;97533.66;4922914;29;1223;-70
2023/08/03 10:16:31;;;;;;;;;;;;;;;24.12;32.62;97531.63;4905916;29;2011;-74
2023/08/03 10:18:56;;;;;;;;;;;;;;;23.97;32.52;97536.34;4938415;29;980;-74
2023/08/03 10:21:22;;;;;;;;;;;;;;;23.01;34.67;97536.25;4938796;29;979;-67
2023/08/03 10:24:06;;;;;;;;;;;;;;;23.09;35.75;97534.69;4923014;29;950;-67
2023/08/03 10:26:31;;;;;;;;;;;;;;;23.28;35.85;97529.09;4938451;29;1939;-67
2023/08/03 10:28:57;;;;;;;;;;;;;;;23.20;36.46;97524.94;4939765;29;963;-73
2023/08/03 10:31:22;;;;;;;;;;;;;;;23.33;34.93;97529.25;4955912;29;932;-75
2023/08/03 10:33:49;;;;;;;;;;;;;;;23.13;34.16;97528.88;4955861;29;1097;-75
2023/08/03 10:36:30;;;;;;;;;;;;;;;22.93;34.18;97517.13;4955933;29;942;-75
2023/08/03 10:38:55;;;;;;;;;;;;;;;22.79;34.04;97522.06;4939932;29;1114;-75
2023/08/03 10:41:21;;;;;;;;;;;;;;;22.78;34.71;97517.66;4955605;29;1069;-75
2023/08/03 10:44:13;;;;;;;;;;;;;;;23.04;34.08;97517.47;4955406;29;958;-74
2023/08/03 10:46:39;;;;;;;;;;;;;;;23.36;32.81;97525.50;4938877;29;1977;-74
2023/08/03 10:49:20;;;;;;;;;;;;;;;23.56;32.37;97518.59;4955325;29;930;-76
2023/08/03 10:51:46;;;;;;;;;;;;;;;23.45;32.04;97518.25;4955411;29;1184;-74
2023/08/03 10:54:12;;;;;;;;;;;;;;;23.40;31.80;97511.91;4955184;29;1105;-74
2023/08/03 10:56:37;;;;;;;;;;;;;;;23.58;31.65;97516.09;4955394;29;1347;-74
2023/08/03 10:59:03;;;;;;;;;;;;;;;23.52;31.51;97517.94;4940598;29;908;-75
2023/08/03 11:01:29;;;;;;;;;;;;;;;23.38;31.53;97514.44;4940398;29;887;-74
2023/08/03 11:03:54;;;;;;;;;;;;;;;23.51;31.15;97514.31;4947077;29;1093;-74
2023/08/03 11:06:20;;;;;;;;;;;;;;;23.53;30.88;97519.53;4936055;29;1906;-74
2023/08/03 11:08:45;;;;;;;;;;;;;;;23.57;30.58;97515.28;4937434;29;1083;-74
2023/08/03 11:11:11;;;;;;;;;;;;;;;23.57;30.46;97514.47;4937794;29;1028;-74
2023/08/03 11:13:37;;;;;;;;;;;;;;;23.68;30.27;97514.88;4899556;29;1193;-74
2023/08/03 11:16:03;;;;;;;;;;;;;;;23.60;30.20;97514.34;4899878;29;928;-74
2023/08/03 11:18:29;;;;;;;;;;;;;;;23.59;30.12;97514.81;4899881;29;979;-74
2023/08/03 11:20:54;;;;;;;;;;;;;;;23.64;29.93;97508.53;4899524;29;1206;-74
2023/08/03 11:23:20;;;;;;;;;;;;;;;23.52;30.38;97512.25;4898930;29;1158;-75
2023/08/03 11:25:46;;;;;;;;;;;;;;;23.65;29.98;97510.13;4899244;29;1922;-75
2023/08/03 11:28:18;;;;;;;;;;;;;;;23.56;30.07;97508.00;4899784;29;1170;-74
2023/08/03 11:30:44;;;;;;;;;;;;;;;23.49;30.29;97507.53;4899804;29;979;-74
2023/08/03 11:33:12;;;;;;;;;;;;;;;23.50;29.94;97509.13;4899401;29;1040;-75
2023/08/03 11:35:37;;;;;;;;;;;;;;;23.53;29.88;97508.19;4899460;29;1036;-74
2023/08/03 11:38:05;;;;;;;;;;;;;;;23.69;29.66;97510.75;4899556;29;1153;-74
2023/08/03 11:40:31;;;;;;;;;;;;;;;23.60;29.91;97508.66;4899616;29;992;-74
2023/08/03 11:42:56;;;;;;;;;;;;;;;23.63;29.71;97506.97;4899588;29;995;-74
2023/08/03 11:45:22;;;;;;;;;;;;;;;23.40;29.91;97505.47;4931948;29;1903;-74
2023/08/03 11:47:48;;;;;;;;;;;;;;;23.52;29.85;97507.41;4938513;29;961;-74
2023/08/03 11:50:19;;;;;;;;;;;;;;;23.43;29.74;97504.53;4938152;29;911;-74
2023/08/03 11:52:45;;;;;;;;;;;;;;;23.46;29.79;97497.09;4922300;29;1112;-74
2023/08/03 11:55:25;;;;;;;;;;;;;;;23.52;29.66;97500.91;4938240;29;944;-74
2023/08/03 11:58:08;;;;;;;;;;;;;;;23.51;29.63;97505.00;4938200;29;1072;-74
2023/08/03 12:00:34;;;;;;;;;;;;;;;23.25;30.23;97493.13;4917477;29;991;-74
2023/08/03 12:03:00;;;;;;;;;;;;;;;23.29;30.23;97497.38;4902399;29;1224;-74
2023/08/03 12:05:25;;;;;;;;;;;;;;;23.36;29.88;97505.63;4917832;29;2006;-75
2023/08/03 12:07:54;;;;;;;;;;;;;;;23.46;29.63;97502.78;4901869;29;1016;-74
2023/08/03 12:10:20;;;;;;;;;;;;;;;23.43;29.84;97503.75;4902068;29;1002;-74
2023/08/03 12:12:45;;;;;;;;;;;;;;;23.39;29.66;97504.66;4917565;29;987;-74
2023/08/03 12:15:11;;;;;;;;;;;;;;;23.35;29.87;97506.06;4901832;29;981;-74
2023/08/03 12:17:37;;;;;;;;;;;;;;;23.56;29.73;97495.88;4902097;29;932;-74
2023/08/03 12:20:02;;;;;;;;;;;;;;;23.42;29.60;97505.78;4917390;29;980;-74
2023/08/03 12:22:28;;;;;;;;;;;;;;;23.61;29.42;97498.09;4917626;29;1058;-74
2023/08/03 12:24:54;;;;;;;;;;;;;;;23.51;29.56;97505.78;4901721;29;1357;-74
2023/08/03 12:27:19;;;;;;;;;;;;;;;23.26;29.99;97506.84;4917489;29;1911;-74
2023/08/03 12:29:45;;;;;;;;;;;;;;;23.32;29.67;97510.66;4917211;29;1129;-74
2023/08/03 12:32:11;;;;;;;;;;;;;;;23.53;29.60;97505.34;4936400;29;935;-74
2023/08/03 12:34:37;;;;;;;;;;;;;;;23.67;29.08;97507.59;4937562;29;973;-75
2023/08/03 12:37:02;;;;;;;;;;;;;;;23.46;29.50;97502.78;4937699;29;879;-74
2023/08/03 12:39:28;;;;;;;;;;;;;;;23.55;29.09;97502.81;4937903;29;918;-75
2023/08/03 12:41:54;;;;;;;;;;;;;;;23.23;29.63;97499.25;4937330;29;961;-74
2023/08/03 12:44:19;;;;;;;;;;;;;;;23.52;29.26;97498.06;4937705;29;1285;-74
2023/08/03 12:46:45;;;;;;;;;;;;;;;23.62;29.29;97505.34;4937435;29;1903;-75
2023/08/03 12:49:11;;;;;;;;;;;;;;;23.60;29.31;97496.50;4937328;29;998;-74
2023/08/03 12:51:37;;;;;;;;;;;;;;;23.58;28.89;97487.69;4937261;29;1476;-74
2023/08/03 12:54:03;;;;;;;;;;;;;;;23.29;29.61;97491.72;4937340;29;979;-75
2023/08/03 12:56:28;;;;;;;;;;;;;;;23.31;29.55;97497.72;4937496;29;956;-74
2023/08/03 12:58:54;;;;;;;;;;;;;;;23.35;29.43;97492.66;4938180;29;1095;-74